createdAt,value
2023-01-29T00:00:09.528Z,25.77
2023-01-29T00:02:39.230Z,29.63
2023-01-29T00:05:25.531Z,30.70
2023-01-29T00:07:53.326Z,30.52
2023-01-29T00:10:19.855Z,29.83
2023-01-29T00:12:46.371Z,32.50
2023-01-29T00:15:12.942Z,26.80
2023-01-29T00:17:42.315Z,28.90
2023-01-29T00:20:09.583Z,29.27
2023-01-29T00:22:36.057Z,31.08
2023-01-29T00:25:02.777Z,29.98
2023-01-29T00:27:29.690Z,26.27
2023-01-29T00:29:56.192Z,28.38
2023-01-29T00:32:22.708Z,29.67
2023-01-29T00:34:49.186Z,28.38
2023-01-29T00:37:15.664Z,30.80
2023-01-29T00:39:48.107Z,28.95
2023-01-29T00:42:16.080Z,28.92
2023-01-29T00:44:43.715Z,30.15
2023-01-29T00:47:10.208Z,29.60
2023-01-29T00:49:36.704Z,30.48
2023-01-29T00:52:06.139Z,28.50
2023-01-29T00:54:33.236Z,32.38
2023-01-29T00:57:00.357Z,29.65
2023-01-29T00:59:26.991Z,29.77
2023-01-29T01:01:53.506Z,29.10
2023-01-29T01:04:20.059Z,29.70
2023-01-29T01:06:46.628Z,32.95
2023-01-29T01:09:13.111Z,28.13
2023-01-29T01:11:39.640Z,27.75
2023-01-29T01:14:06.135Z,32.13
2023-01-29T01:16:32.679Z,27.63
2023-01-29T01:18:59.415Z,27.83
2023-01-29T01:21:26.004Z,29.83
2023-01-29T01:23:52.497Z,31.50
2023-01-29T01:26:22.001Z,28.35
2023-01-29T01:28:48.712Z,29.92
2023-01-29T01:31:15.210Z,28.88
2023-01-29T01:33:41.848Z,26.73
2023-01-29T01:36:08.512Z,27.27
2023-01-29T01:38:36.655Z,32.67
2023-01-29T01:41:03.155Z,28.58
2023-01-29T01:43:56.502Z,28.05
2023-01-29T01:46:35.310Z,29.38
2023-01-29T01:49:07.303Z,29.90
2023-01-29T01:51:37.479Z,29.88
2023-01-29T01:54:07.955Z,29.58
2023-01-29T01:56:41.015Z,30.70
2023-01-29T01:59:10.648Z,31.02
2023-01-29T02:01:37.578Z,28.77
2023-01-29T02:04:09.900Z,30.55
2023-01-29T02:06:39.598Z,28.60
2023-01-29T02:09:17.542Z,29.23
2023-01-29T02:11:44.034Z,28.23
2023-01-29T02:14:10.920Z,31.45
2023-01-29T02:16:37.637Z,31.60
2023-01-29T02:19:17.288Z,28.45
2023-01-29T02:22:08.044Z,31.48
2023-01-29T02:27:22.169Z,31.35
2023-01-29T02:30:05.869Z,29.15
2023-01-29T02:32:56.907Z,32.70
2023-01-29T02:35:44.194Z,31.50
2023-01-29T02:38:35.160Z,31.60
2023-01-29T02:41:10.597Z,31.77
2023-01-29T02:43:50.792Z,32.78
2023-01-29T02:46:47.082Z,28.33
2023-01-29T02:49:23.936Z,28.42
2023-01-29T02:52:10.032Z,32.92
2023-01-29T02:54:56.845Z,27.52
2023-01-29T02:57:27.002Z,29.48
2023-01-29T03:00:04.380Z,32.10
2023-01-29T03:02:55.586Z,29.67
2023-01-29T03:05:28.888Z,28.33
2023-01-29T03:07:59.699Z,28.05
2023-01-29T03:10:34.068Z,26.55
2023-01-29T03:13:06.595Z,30.42
2023-01-29T03:15:39.215Z,28.42
2023-01-29T03:18:12.620Z,26.77
2023-01-29T03:20:50.616Z,27.40
2023-01-29T03:23:29.471Z,27.98
2023-01-29T03:25:58.865Z,25.90
2023-01-29T03:28:26.116Z,27.90
2023-01-29T03:30:55.182Z,26.10
2023-01-29T03:33:24.084Z,26.95
2023-01-29T03:35:55.375Z,28.15
2023-01-29T03:38:21.930Z,27.45
2023-01-29T03:40:57.102Z,27.65
2023-01-29T03:43:34.100Z,27.75
2023-01-29T03:46:08.278Z,27.35
2023-01-29T03:48:41.899Z,28.23
2023-01-29T03:51:14.520Z,28.30
2023-01-29T03:54:02.042Z,27.40
2023-01-29T03:56:35.116Z,25.58
2023-01-29T03:59:16.169Z,26.02
2023-01-29T04:01:49.010Z,26.58
2023-01-29T04:04:22.726Z,27.92
2023-01-29T04:06:51.144Z,28.55
2023-01-29T04:09:20.589Z,28.55
2023-01-29T04:11:50.615Z,27.88
2023-01-29T04:14:17.656Z,25.42
2023-01-29T04:16:52.521Z,27.67
2023-01-29T04:19:19.052Z,27.63
2023-01-29T04:21:48.735Z,26.30
2023-01-29T04:24:15.524Z,25.17
2023-01-29T04:26:42.026Z,26.67
2023-01-29T04:29:33.494Z,25.35
2023-01-29T04:32:11.357Z,24.30
2023-01-29T04:34:56.713Z,27.40
2023-01-29T04:37:30.022Z,27.23
2023-01-29T04:40:15.476Z,28.13
2023-01-29T04:43:01.852Z,26.63
2023-01-29T04:45:34.725Z,25.90
2023-01-29T04:48:27.943Z,28.20
2023-01-29T04:51:13.103Z,26.13
2023-01-29T04:54:25.984Z,27.13
2023-01-29T04:56:52.376Z,26.98
2023-01-29T04:59:29.519Z,25.95
2023-01-29T05:01:56.318Z,26.35
2023-01-29T05:04:23.775Z,27.27
2023-01-29T05:06:52.015Z,26.42
2023-01-29T05:09:19.790Z,27.05
2023-01-29T05:11:47.750Z,26.02
2023-01-29T05:14:17.234Z,28.60
2023-01-29T05:16:46.382Z,26.77
2023-01-29T05:19:14.885Z,26.38
2023-01-29T05:21:44.582Z,26.00
2023-01-29T05:24:17.019Z,25.65
2023-01-29T05:26:45.947Z,26.42
2023-01-29T05:29:12.455Z,27.35
2023-01-29T05:31:38.948Z,26.50
2023-01-29T05:34:05.597Z,24.80
2023-01-29T05:36:32.056Z,25.75
2023-01-29T05:38:58.573Z,25.10
2023-01-29T05:41:25.308Z,26.90
2023-01-29T05:43:51.838Z,26.00
2023-01-29T05:46:18.336Z,26.77
2023-01-29T05:48:44.931Z,25.38
2023-01-29T05:51:11.451Z,26.58
2023-01-29T05:53:38.015Z,25.55
2023-01-29T05:56:05.520Z,28.13
2023-01-29T05:58:32.906Z,26.85
2023-01-29T06:01:17.715Z,26.67
2023-01-29T06:03:44.597Z,26.42
2023-01-29T06:06:11.477Z,24.85
2023-01-29T06:08:38.425Z,25.40
2023-01-29T06:11:07.472Z,26.58
2023-01-29T06:13:34.451Z,24.63
2023-01-29T06:16:01.208Z,24.10
2023-01-29T06:18:27.663Z,26.30
2023-01-29T06:20:54.137Z,27.67
2023-01-29T06:23:21.104Z,26.42
2023-01-29T06:25:47.755Z,26.80
2023-01-29T06:28:14.245Z,26.10
2023-01-29T06:30:40.827Z,27.88
2023-01-29T06:33:07.335Z,24.80
2023-01-29T06:35:33.821Z,27.08
2023-01-29T06:38:00.352Z,24.15
2023-01-29T06:40:26.869Z,25.08
2023-01-29T06:42:53.328Z,24.77
2023-01-29T06:45:19.890Z,25.17
2023-01-29T06:47:46.397Z,26.60
2023-01-29T06:50:12.958Z,24.98
2023-01-29T06:52:39.515Z,26.75
2023-01-29T06:55:06.433Z,25.25
2023-01-29T06:57:32.929Z,24.85
2023-01-29T06:59:59.397Z,27.58
2023-01-29T07:02:25.863Z,27.00
2023-01-29T07:04:52.412Z,25.48
2023-01-29T07:07:18.911Z,25.17
2023-01-29T07:09:45.404Z,23.98
2023-01-29T07:12:11.994Z,25.33
2023-01-29T07:14:38.486Z,26.25
2023-01-29T07:17:04.938Z,27.67
2023-01-29T07:19:31.409Z,26.02
2023-01-29T07:21:57.887Z,25.42
2023-01-29T07:24:24.541Z,25.60
2023-01-29T07:26:51.038Z,25.20
2023-01-29T07:29:17.488Z,26.75
2023-01-29T07:31:43.995Z,26.23
2023-01-29T07:34:10.513Z,25.58
2023-01-29T07:36:36.972Z,27.98
2023-01-29T07:39:03.573Z,24.08
2023-01-29T07:41:30.045Z,22.73
2023-01-29T07:43:56.503Z,24.40
2023-01-29T07:46:22.973Z,22.88
2023-01-29T07:48:49.588Z,26.20
2023-01-29T07:51:16.104Z,29.42
2023-01-29T07:53:42.587Z,37.60
2023-01-29T07:56:09.121Z,46.03
2023-01-29T07:58:36.754Z,28.65
2023-01-29T08:01:07.119Z,25.30
2023-01-29T08:03:33.657Z,25.10
2023-01-29T08:06:00.172Z,23.33
2023-01-29T08:08:26.655Z,24.77
2023-01-29T08:10:53.115Z,24.55
2023-01-29T08:13:19.563Z,22.52
2023-01-29T08:15:46.136Z,24.65
2023-01-29T08:18:15.177Z,28.65
2023-01-29T08:20:41.627Z,31.67
2023-01-29T08:23:13.941Z,30.48
2023-01-29T08:25:40.685Z,24.58
2023-01-29T08:28:07.428Z,24.40
2023-01-29T08:30:34.395Z,22.13
2023-01-29T08:33:01.510Z,23.50
2023-01-29T08:35:28.093Z,24.33
2023-01-29T08:37:55.521Z,24.10
2023-01-29T08:40:22.891Z,25.10
2023-01-29T08:42:49.667Z,21.00
2023-01-29T08:45:16.461Z,20.70
2023-01-29T08:47:49.888Z,20.00
2023-01-29T08:50:17.777Z,19.27
2023-01-29T08:52:45.150Z,19.58
2023-01-29T08:55:12.399Z,18.70
2023-01-29T08:57:40.105Z,18.70
2023-01-29T09:00:07.781Z,19.35
2023-01-29T09:02:34.282Z,21.40
2023-01-29T09:05:00.821Z,17.45
2023-01-29T09:07:29.967Z,20.52
2023-01-29T09:09:56.652Z,23.25
2023-01-29T09:12:23.322Z,21.25
2023-01-29T09:14:49.825Z,21.13
2023-01-29T09:17:16.284Z,23.20
2023-01-29T09:19:43.051Z,21.27
2023-01-29T09:22:11.628Z,21.13
2023-01-29T09:24:38.426Z,20.95
2023-01-29T09:27:05.040Z,19.58
2023-01-29T09:29:33.050Z,20.83
2023-01-29T09:32:00.663Z,19.85
2023-01-29T09:34:27.161Z,20.25
2023-01-29T09:36:53.611Z,18.42
2023-01-29T09:39:22.176Z,18.05
2023-01-29T09:41:54.609Z,19.55
2023-01-29T09:44:27.504Z,18.13
2023-01-29T09:46:54.976Z,18.52
2023-01-29T09:49:24.728Z,21.08
2023-01-29T09:51:58.920Z,20.42
2023-01-29T09:55:02.509Z,19.48
2023-01-29T09:57:37.922Z,18.30
2023-01-29T10:00:04.975Z,20.52
2023-01-29T10:02:48.564Z,19.17
2023-01-29T10:05:21.656Z,19.27
2023-01-29T10:08:03.777Z,24.83
2023-01-29T10:10:30.264Z,19.08
2023-01-29T10:13:21.326Z,19.35
2023-01-29T10:16:00.385Z,20.73
2023-01-29T10:18:41.812Z,20.90
2023-01-29T10:21:41.908Z,19.38
2023-01-29T10:24:59.807Z,20.05
2023-01-29T10:27:34.688Z,21.02
2023-01-29T10:30:03.385Z,21.45
2023-01-29T10:32:31.043Z,21.98
2023-01-29T10:35:03.547Z,22.73
2023-01-29T10:37:43.308Z,20.85
2023-01-29T10:40:34.065Z,18.95
2023-01-29T10:43:18.001Z,21.27
2023-01-29T10:46:03.809Z,21.02
2023-01-29T10:48:30.201Z,21.00
2023-01-29T10:51:25.944Z,21.23
2023-01-29T10:54:02.436Z,24.48
2023-01-29T10:56:44.309Z,20.08
2023-01-29T10:59:16.874Z,26.77
2023-01-29T11:01:44.532Z,22.75
2023-01-29T11:04:12.742Z,20.58
2023-01-29T11:06:39.238Z,19.85
2023-01-29T11:12:16.236Z,22.98
2023-01-29T11:14:49.100Z,26.60
2023-01-29T11:17:21.420Z,25.92
2023-01-29T11:19:49.997Z,28.33
2023-01-29T11:22:20.216Z,30.38
2023-01-29T11:24:47.459Z,26.63
2023-01-29T11:27:26.194Z,22.27
2023-01-29T11:29:53.426Z,23.92
2023-01-29T11:32:22.903Z,26.35
2023-01-29T11:35:04.965Z,21.08
2023-01-29T11:37:33.752Z,22.75
2023-01-29T11:40:00.271Z,20.45
2023-01-29T11:42:31.119Z,21.60
2023-01-29T11:44:57.800Z,22.05
2023-01-29T11:47:29.229Z,20.90
2023-01-29T11:49:58.662Z,23.38
2023-01-29T11:52:39.761Z,23.95
2023-01-29T11:55:17.506Z,26.85
2023-01-29T11:57:46.928Z,25.27
2023-01-29T12:00:23.915Z,27.63
2023-01-29T12:02:54.887Z,30.45
2023-01-29T12:05:23.646Z,27.60
2023-01-29T12:07:52.403Z,28.88
2023-01-29T12:10:34.167Z,24.50
2023-01-29T12:13:09.579Z,24.35
2023-01-29T12:15:40.432Z,19.92
2023-01-29T12:18:32.005Z,20.15
2023-01-29T12:21:02.365Z,21.80
2023-01-29T12:26:22.141Z,23.83
2023-01-29T12:29:00.194Z,23.98
2023-01-29T12:31:38.480Z,26.80
2023-01-29T12:34:21.403Z,24.25
2023-01-29T12:36:55.604Z,26.15
2023-01-29T12:39:22.470Z,24.58
2023-01-29T12:41:59.988Z,23.02
2023-01-29T12:44:42.491Z,21.38
2023-01-29T12:47:17.121Z,22.30
2023-01-29T12:49:46.650Z,20.33
2023-01-29T12:52:23.852Z,24.80
2023-01-29T12:54:59.265Z,23.15
2023-01-29T12:57:40.320Z,24.13
2023-01-29T13:00:20.543Z,22.27
2023-01-29T13:02:51.254Z,20.88
2023-01-29T13:05:26.265Z,23.33
2023-01-29T13:07:58.017Z,22.85
2023-01-29T13:10:32.701Z,23.02
2023-01-29T13:13:05.025Z,22.35
2023-01-29T13:15:36.529Z,22.73
2023-01-29T13:18:31.273Z,22.38
2023-01-29T13:21:01.168Z,20.23
2023-01-29T13:23:37.112Z,20.55
2023-01-29T13:26:04.262Z,21.83
2023-01-29T13:28:30.744Z,21.33
2023-01-29T13:31:29.722Z,22.00
2023-01-29T13:34:04.384Z,29.73
2023-01-29T13:36:31.348Z,30.75
2023-01-29T13:42:16.077Z,24.35
2023-01-29T13:44:47.920Z,26.73
2023-01-29T13:47:23.720Z,26.60
2023-01-29T13:49:59.072Z,26.20
2023-01-29T13:52:41.776Z,22.30
2023-01-29T13:55:32.547Z,22.75
2023-01-29T13:58:06.123Z,20.42
2023-01-29T14:00:35.561Z,22.25
2023-01-29T14:03:01.981Z,22.77
2023-01-29T14:05:31.637Z,21.98
2023-01-29T14:08:14.142Z,22.15
2023-01-29T14:10:43.896Z,24.67
2023-01-29T14:13:17.165Z,20.63
2023-01-29T14:15:45.184Z,23.20
2023-01-29T14:18:16.258Z,22.95
2023-01-29T14:21:02.548Z,23.40
2023-01-29T14:23:47.004Z,24.08
2023-01-29T14:26:26.244Z,22.00
2023-01-29T14:29:06.535Z,22.33
2023-01-29T14:31:47.708Z,22.08
2023-01-29T14:34:23.536Z,25.05
2023-01-29T14:36:53.488Z,23.77
2023-01-29T14:39:36.988Z,25.00
2023-01-29T14:42:13.650Z,24.95
2023-01-29T14:44:46.246Z,25.02
2023-01-29T14:47:38.739Z,23.45
2023-01-29T14:50:29.740Z,24.05
2023-01-29T14:53:01.915Z,24.00
2023-01-29T14:55:38.056Z,22.55
2023-01-29T14:58:04.941Z,23.38
2023-01-29T15:00:35.004Z,24.33
2023-01-29T15:03:02.828Z,23.08
2023-01-29T15:05:36.426Z,23.40
2023-01-29T15:08:23.322Z,23.70
2023-01-29T15:10:54.698Z,24.10
2023-01-29T15:13:35.831Z,25.10
2023-01-29T15:16:13.422Z,24.02
2023-01-29T15:18:43.514Z,26.15
2023-01-29T15:21:15.075Z,25.48
2023-01-29T15:23:42.570Z,23.67
2023-01-29T15:26:17.420Z,23.50
2023-01-29T15:28:47.209Z,26.88
2023-01-29T15:31:18.557Z,25.25
2023-01-29T15:33:47.165Z,22.38
2023-01-29T15:36:21.841Z,24.83
2023-01-29T15:38:48.623Z,24.20
2023-01-29T15:41:18.933Z,24.63
2023-01-29T15:43:50.879Z,25.75
2023-01-29T15:46:33.706Z,21.70
2023-01-29T15:49:09.536Z,25.20
2023-01-29T15:51:39.465Z,23.45
2023-01-29T15:54:16.894Z,23.42
2023-01-29T15:56:47.822Z,25.83
2023-01-29T15:59:22.561Z,27.70
2023-01-29T16:01:53.199Z,25.63
2023-01-29T16:04:30.530Z,26.60
2023-01-29T16:06:58.249Z,24.85
2023-01-29T16:09:26.289Z,21.75
2023-01-29T16:11:54.438Z,26.73
2023-01-29T16:14:23.265Z,24.55
2023-01-29T16:16:50.123Z,24.60
2023-01-29T16:19:28.837Z,24.13
2023-01-29T16:22:07.167Z,29.95
2023-01-29T16:24:36.278Z,26.48
2023-01-29T16:27:10.899Z,27.05
2023-01-29T16:29:37.533Z,30.02
2023-01-29T16:32:04.924Z,28.42
2023-01-29T16:34:35.069Z,27.73
2023-01-29T16:37:04.430Z,27.33
2023-01-29T16:39:37.429Z,29.45
2023-01-29T16:42:10.096Z,26.08
2023-01-29T16:44:37.978Z,25.92
2023-01-29T16:47:16.006Z,25.88
2023-01-29T16:49:45.734Z,25.08
2023-01-29T16:52:28.712Z,26.48
2023-01-29T16:55:13.536Z,25.17
2023-01-29T16:57:40.549Z,27.45
2023-01-29T17:00:13.260Z,26.70
2023-01-29T17:02:40.003Z,25.52
2023-01-29T17:05:10.014Z,25.98
2023-01-29T17:07:37.033Z,27.52
2023-01-29T17:10:06.300Z,25.13
2023-01-29T17:12:33.653Z,29.23
2023-01-29T17:15:20.028Z,26.73
2023-01-29T17:17:48.836Z,27.33
2023-01-29T17:20:17.092Z,26.90
2023-01-29T17:22:44.041Z,29.08
2023-01-29T17:25:15.386Z,31.58
2023-01-29T17:27:43.798Z,29.83
2023-01-29T17:30:15.466Z,28.98
2023-01-29T17:32:43.602Z,28.27
2023-01-29T17:35:16.156Z,30.55
2023-01-29T17:37:43.456Z,27.65
2023-01-29T17:40:17.266Z,30.50
2023-01-29T17:42:43.983Z,30.48
2023-01-29T17:45:10.783Z,31.58
2023-01-29T17:47:37.279Z,33.95
2023-01-29T17:50:16.498Z,30.35
2023-01-29T17:52:43.043Z,32.55
2023-01-29T17:55:09.782Z,34.97
2023-01-29T17:57:36.423Z,31.33
2023-01-29T18:00:03.966Z,29.70
2023-01-29T18:02:30.541Z,25.92
2023-01-29T18:04:57.073Z,30.58
2023-01-29T18:07:23.703Z,27.90
2023-01-29T18:09:50.481Z,33.35
2023-01-29T18:12:17.096Z,31.42
2023-01-29T18:14:44.306Z,40.60
2023-01-29T18:17:10.906Z,38.17
2023-01-29T18:19:37.452Z,46.33
2023-01-29T18:22:04.041Z,34.55
2023-01-29T18:24:30.603Z,29.10
2023-01-29T18:26:57.208Z,33.50
2023-01-29T18:29:23.964Z,38.70
2023-01-29T18:31:50.762Z,39.80
2023-01-29T18:34:18.451Z,36.00
2023-01-29T18:36:44.910Z,35.70
2023-01-29T18:39:11.874Z,37.65
2023-01-29T18:41:38.930Z,35.22
2023-01-29T18:44:05.559Z,35.38
2023-01-29T18:46:32.272Z,38.67
2023-01-29T18:48:59.117Z,33.40
2023-01-29T18:51:26.160Z,33.60
2023-01-29T18:53:53.070Z,32.75
2023-01-29T18:56:19.821Z,36.10
2023-01-29T18:58:51.991Z,34.25
2023-01-29T19:01:19.854Z,32.67
2023-01-29T19:03:46.830Z,33.75
2023-01-29T19:06:13.340Z,37.92
2023-01-29T19:08:40.759Z,33.05
2023-01-29T19:11:07.405Z,52.72
2023-01-29T19:13:35.507Z,46.65
2023-01-29T19:16:27.602Z,37.58
2023-01-29T19:18:55.127Z,38.78
2023-01-29T19:21:22.389Z,36.65
2023-01-29T19:23:49.176Z,32.95
2023-01-29T19:26:17.715Z,34.15
2023-01-29T19:28:47.055Z,34.05
2023-01-29T19:31:14.896Z,32.20
2023-01-29T19:33:41.474Z,34.88
2023-01-29T19:36:08.869Z,35.30
2023-01-29T19:38:35.511Z,32.88
2023-01-29T19:41:02.263Z,36.92
2023-01-29T19:43:29.803Z,38.00
2023-01-29T19:46:00.512Z,39.75
2023-01-29T19:48:27.590Z,44.00
2023-01-29T19:50:59.083Z,43.40
2023-01-29T19:53:27.903Z,44.38
2023-01-29T19:56:00.211Z,50.00
2023-01-29T19:58:26.899Z,48.42
2023-01-29T20:01:06.034Z,46.47
2023-01-29T20:03:33.089Z,41.38
2023-01-29T20:06:04.806Z,39.92
2023-01-29T20:08:32.047Z,38.50
2023-01-29T20:10:59.156Z,38.38
2023-01-29T20:13:25.878Z,40.22
2023-01-29T20:15:52.507Z,36.75
2023-01-29T20:18:19.586Z,37.53
2023-01-29T20:20:48.214Z,35.88
2023-01-29T20:23:22.320Z,38.78
2023-01-29T20:25:59.417Z,36.40
2023-01-29T20:28:26.018Z,37.50
2023-01-29T20:30:53.062Z,37.97
2023-01-29T20:33:19.693Z,39.28
2023-01-29T20:35:46.228Z,41.78
2023-01-29T20:38:12.781Z,39.28
2023-01-29T20:40:39.351Z,36.08
2023-01-29T20:43:05.983Z,37.10
2023-01-29T20:45:33.037Z,40.45
2023-01-29T20:47:59.643Z,40.20
2023-01-29T20:50:26.124Z,46.85
2023-01-29T20:52:52.675Z,41.05
2023-01-29T20:55:19.286Z,40.58
2023-01-29T20:57:45.846Z,47.35
2023-01-29T21:00:33.193Z,38.15
2023-01-29T21:03:00.459Z,38.28
2023-01-29T21:05:27.326Z,45.85
2023-01-29T21:07:56.793Z,54.05
2023-01-29T21:10:23.845Z,53.55
2023-01-29T21:12:50.345Z,48.40
2023-01-29T21:15:16.833Z,43.05
2023-01-29T21:17:47.581Z,39.13
2023-01-29T21:20:16.064Z,40.13
2023-01-29T21:22:42.908Z,40.03
2023-01-29T21:25:10.075Z,37.58
2023-01-29T21:27:36.618Z,50.85
2023-01-29T21:30:03.985Z,74.60
2023-01-29T21:32:31.029Z,58.75
2023-01-29T21:34:57.537Z,56.58
2023-01-29T21:37:24.059Z,60.47
2023-01-29T21:39:50.574Z,54.85
2023-01-29T21:42:17.177Z,42.85
2023-01-29T21:44:43.725Z,40.47
2023-01-29T21:47:10.839Z,54.65
2023-01-29T21:49:46.839Z,51.15
2023-01-29T21:52:13.854Z,53.50
2023-01-29T21:54:41.354Z,55.13
2023-01-29T21:57:12.344Z,49.47
2023-01-29T21:59:39.380Z,50.70
2023-01-29T22:02:06.354Z,58.67
2023-01-29T22:04:33.459Z,58.28
2023-01-29T22:06:59.973Z,42.33
2023-01-29T22:09:27.260Z,40.50
2023-01-29T22:11:55.174Z,34.88
2023-01-29T22:14:21.941Z,33.38
2023-01-29T22:16:50.168Z,34.22
2023-01-29T22:19:16.670Z,35.58
2023-01-29T22:21:45.922Z,34.17
2023-01-29T22:24:12.833Z,34.05
2023-01-29T22:26:39.366Z,36.38
2023-01-29T22:29:05.854Z,34.72
2023-01-29T22:31:35.088Z,32.97
2023-01-29T22:34:03.572Z,43.38
2023-01-29T22:36:30.597Z,44.00
2023-01-29T22:38:57.463Z,36.22
2023-01-29T22:41:23.988Z,33.88
2023-01-29T22:43:50.937Z,34.38
2023-01-29T22:46:17.628Z,37.50
2023-01-29T22:48:44.497Z,33.65
2023-01-29T22:51:11.002Z,31.77
2023-01-29T22:53:39.335Z,34.47
2023-01-29T22:56:06.744Z,33.70
2023-01-29T22:58:33.705Z,38.38
2023-01-29T23:01:00.394Z,34.05
2023-01-29T23:03:26.896Z,30.67
2023-01-29T23:05:53.522Z,38.83
2023-01-29T23:08:20.019Z,33.90
2023-01-29T23:10:47.087Z,33.47
2023-01-29T23:13:13.701Z,31.10
2023-01-29T23:15:40.356Z,31.17
2023-01-29T23:18:06.884Z,30.85
2023-01-29T23:20:33.335Z,33.65
2023-01-29T23:22:59.971Z,32.63
2023-01-29T23:25:26.608Z,28.33
2023-01-29T23:27:56.662Z,31.02
2023-01-29T23:30:23.303Z,31.08
2023-01-29T23:32:50.315Z,28.55
2023-01-29T23:35:16.816Z,27.92
2023-01-29T23:37:43.631Z,27.85
2023-01-29T23:40:10.879Z,26.58
2023-01-29T23:42:38.994Z,25.52
2023-01-29T23:45:06.215Z,25.02
2023-01-29T23:47:32.721Z,27.55
2023-01-29T23:49:59.600Z,25.88
2023-01-29T23:52:26.246Z,27.08
2023-01-29T23:54:53.999Z,27.65
2023-01-29T23:57:20.479Z,25.83
2023-01-29T23:59:47.024Z,30.30
